Time;durP1;ratioP1;P1;durP2;ratioP2;P2;SDS_P1;SDS_P2;PMS_P1;PMS_P2;Temp;Humidity;BMP_temperature;BMP_pressure;BME280_temperature;BME280_humidity;BME280_pressure;Samples;Min_cycle;Max_cycle;Signal;HPM_P1;HPM_P2
2023/04/26 00:02:11;;;;;;;6.22;3.53;;;3.30;99.90;;;;;;5084069;28;20071;-31
2023/04/26 00:04:37;;;;;;;6.18;3.88;;;3.30;99.90;;;;;;5092533;28;20036;-31
2023/04/26 00:07:03;;;;;;;6.45;4.03;;;3.20;99.90;;;;;;5083989;28;20059;-31
2023/04/26 00:09:30;;;;;;;8.10;3.70;;;3.20;99.90;;;;;;5092454;28;20486;-31
2023/04/26 00:11:56;;;;;;;5.55;3.22;;;3.20;99.90;;;;;;5092385;28;20036;-31
2023/04/26 00:14:21;;;;;;;9.75;3.88;;;3.10;99.90;;;;;;5093094;28;20109;-31
2023/04/26 00:16:47;;;;;;;5.70;3.22;;;3.10;99.90;;;;;;5086785;28;20079;-32
2023/04/26 00:19:14;;;;;;;6.35;3.47;;;3.00;99.90;;;;;;5091873;28;20113;-32
2023/04/26 00:21:40;;;;;;;6.70;3.00;;;3.00;99.90;;;;;;5075559;28;20517;-31
2023/04/26 00:24:09;;;;;;;8.60;3.67;;;3.00;99.90;;;;;;5084939;28;20523;-32
2023/04/26 00:26:35;;;;;;;8.63;3.42;;;3.00;99.90;;;;;;5091713;28;20093;-32
2023/04/26 00:29:03;;;;;;;6.50;3.50;;;2.90;99.90;;;;;;5092397;28;20040;-32
2023/04/26 00:31:28;;;;;;;7.97;3.55;;;2.90;99.90;;;;;;5091911;28;20042;-31
2023/04/26 00:33:54;;;;;;;7.47;3.53;;;2.90;99.90;;;;;;5092071;28;20392;-31
2023/04/26 00:36:20;;;;;;;8.38;3.70;;;2.90;99.90;;;;;;5091301;28;20044;-32
2023/04/26 00:38:46;;;;;;;8.98;3.63;;;3.00;99.90;;;;;;5086900;28;20414;-32
2023/04/26 00:41:12;;;;;;;10.65;3.67;;;3.00;99.90;;;;;;5092752;28;20042;-32
2023/04/26 00:43:39;;;;;;;5.93;3.38;;;3.10;99.90;;;;;;5072524;28;20400;-32
2023/04/26 00:46:06;;;;;;;8.35;3.83;;;3.10;99.90;;;;;;5090548;28;20166;-32
2023/04/26 00:48:33;;;;;;;7.72;3.58;;;3.10;99.90;;;;;;5090953;28;20516;-32
2023/04/26 00:51:00;;;;;;;9.85;3.72;;;3.20;99.90;;;;;;5091548;28;20124;-32
2023/04/26 00:53:26;;;;;;;5.15;3.05;;;3.30;99.90;;;;;;5091901;28;20460;-32
2023/04/26 00:55:53;;;;;;;8.40;3.88;;;3.30;99.90;;;;;;5087104;28;20028;-32
2023/04/26 00:58:19;;;;;;;9.80;3.92;;;3.40;99.90;;;;;;5087754;28;20040;-32
2023/04/26 01:00:45;;;;;;;8.23;3.47;;;3.40;99.90;;;;;;5091212;28;20062;-32
2023/04/26 01:03:11;;;;;;;8.27;3.72;;;3.50;99.90;;;;;;5091712;28;20555;-32
2023/04/26 01:05:37;;;;;;;5.38;3.45;;;3.50;99.90;;;;;;5090917;28;20036;-32
2023/04/26 01:08:03;;;;;;;9.77;3.40;;;3.60;99.90;;;;;;5090484;28;20027;-33
2023/04/26 01:10:31;;;;;;;8.15;3.33;;;3.70;99.90;;;;;;5091428;28;20036;-31
2023/04/26 01:12:57;;;;;;;5.78;3.28;;;3.70;99.90;;;;;;5090933;28;20042;-32
2023/04/26 01:15:24;;;;;;;6.22;3.67;;;3.80;99.90;;;;;;5090909;28;20130;-31
2023/04/26 01:17:51;;;;;;;13.07;3.65;;;3.80;99.90;;;;;;5091045;28;20036;-32
2023/04/26 01:20:16;;;;;;;8.82;3.15;;;3.80;99.90;;;;;;5090662;28;20040;-32
2023/04/26 01:22:42;;;;;;;6.75;2.95;;;3.80;99.90;;;;;;5087749;28;20036;-32
2023/04/26 01:25:11;;;;;;;8.02;3.20;;;3.90;99.90;;;;;;5091075;28;20119;-32
2023/04/26 01:27:37;;;;;;;7.55;3.17;;;3.90;99.90;;;;;;5090520;28;20047;-31
2023/04/26 01:30:03;;;;;;;7.13;2.92;;;3.90;99.90;;;;;;5091056;28;20036;-32
2023/04/26 01:32:29;;;;;;;7.78;3.40;;;3.90;99.90;;;;;;5089836;28;20055;-32
2023/04/26 01:34:55;;;;;;;5.75;2.83;;;3.90;99.90;;;;;;5082677;28;20040;-32
2023/04/26 01:37:21;;;;;;;8.25;3.40;;;3.90;99.90;;;;;;5088603;28;20040;-32
2023/04/26 01:39:47;;;;;;;7.90;3.08;;;3.90;99.90;;;;;;5089301;28;20405;-33
2023/04/26 01:42:12;;;;;;;6.13;3.10;;;3.90;99.90;;;;;;5089257;28;20028;-32
2023/04/26 01:44:38;;;;;;;6.72;3.03;;;3.90;99.90;;;;;;5081847;28;20125;-31
2023/04/26 01:47:05;;;;;;;8.90;3.00;;;3.90;99.90;;;;;;5089597;28;20117;-31
2023/04/26 01:49:31;;;;;;;7.70;3.20;;;3.90;99.90;;;;;;5090472;28;20458;-31
2023/04/26 01:51:58;;;;;;;6.38;3.33;;;3.90;99.90;;;;;;5090775;28;20089;-31
2023/04/26 01:54:24;;;;;;;5.30;3.10;;;3.80;99.90;;;;;;5088727;28;20046;-31
2023/04/26 01:56:50;;;;;;;6.75;3.30;;;3.70;99.90;;;;;;5087622;28;20040;-32
2023/04/26 01:59:16;;;;;;;11.45;3.60;;;3.70;99.90;;;;;;5085502;28;20389;-31
2023/04/26 02:01:45;;;;;;;4.38;2.95;;;3.60;99.90;;;;;;5086273;28;20071;-32
2023/04/26 02:04:10;;;;;;;9.82;3.80;;;3.50;99.90;;;;;;5090260;28;20036;-32
2023/04/26 02:06:41;;;;;;;6.22;3.05;;;3.50;99.90;;;;;;5082073;28;20105;-32
2023/04/26 02:09:08;;;;;;;7.90;3.65;;;3.30;99.90;;;;;;5090411;28;20574;-32
2023/04/26 02:11:34;;;;;;;9.27;3.08;;;3.30;99.90;;;;;;5107457;28;20097;-32
2023/04/26 02:14:01;;;;;;;6.90;3.03;;;3.20;99.90;;;;;;5089964;28;20032;-32
2023/04/26 02:16:27;;;;;;;6.90;3.47;;;3.20;99.90;;;;;;5089645;28;20044;-33
2023/04/26 02:18:53;;;;;;;5.78;3.53;;;3.10;99.90;;;;;;5090059;28;20040;-32
2023/04/26 02:21:21;;;;;;;8.82;3.13;;;3.10;99.90;;;;;;5090112;28;20036;-31
2023/04/26 02:23:47;;;;;;;7.60;3.50;;;3.10;99.90;;;;;;5089739;28;20036;-32
2023/04/26 02:26:13;;;;;;;4.68;3.25;;;3.10;99.90;;;;;;5090131;28;20068;-32
2023/04/26 02:28:39;;;;;;;6.30;3.40;;;3.10;99.90;;;;;;5090338;28;20028;-32
2023/04/26 02:31:05;;;;;;;7.65;3.30;;;3.20;99.90;;;;;;5089679;28;20089;-32
2023/04/26 02:33:31;;;;;;;5.50;3.10;;;3.20;99.90;;;;;;5089803;28;20115;-32
2023/04/26 02:35:57;;;;;;;5.53;2.90;;;3.30;99.90;;;;;;5089223;28;20036;-31
2023/04/26 02:38:25;;;;;;;7.05;3.13;;;3.30;99.90;;;;;;5089771;28;20032;-31
2023/04/26 02:40:58;;;;;;;6.18;2.92;;;3.40;99.90;;;;;;5089781;28;20427;-32
2023/04/26 02:43:24;;;;;;;8.18;3.05;;;3.40;99.90;;;;;;5089696;28;20043;-31
2023/04/26 02:45:49;;;;;;;7.32;3.20;;;3.40;99.90;;;;;;5079425;28;20401;-31
2023/04/26 02:48:15;;;;;;;5.93;2.95;;;3.40;99.90;;;;;;5089361;28;20238;-32
2023/04/26 02:50:41;;;;;;;6.20;3.33;;;3.40;99.90;;;;;;5089867;28;20089;-32
2023/04/26 02:53:07;;;;;;;6.63;3.40;;;3.40;99.90;;;;;;5089603;28;20039;-32
2023/04/26 02:55:32;;;;;;;4.97;3.47;;;3.40;99.90;;;;;;5089234;28;20032;-31
2023/04/26 02:57:58;;;;;;;7.25;3.13;;;3.30;99.90;;;;;;5089726;28;20097;-31
2023/04/26 03:00:24;;;;;;;5.93;2.90;;;3.30;99.90;;;;;;5087856;28;20063;-31
2023/04/26 03:02:50;;;;;;;6.80;3.03;;;3.20;99.90;;;;;;5089373;28;20032;-32
2023/04/26 03:05:16;;;;;;;5.65;3.00;;;3.20;99.90;;;;;;5082671;28;20498;-31
2023/04/26 03:07:42;;;;;;;5.22;3.00;;;3.20;99.90;;;;;;5087637;28;20124;-32
2023/04/26 03:10:08;;;;;;;7.18;3.38;;;3.10;99.90;;;;;;5073668;28;20524;-32
2023/04/26 03:12:34;;;;;;;6.68;3.15;;;3.20;99.90;;;;;;5091729;28;20486;-33
2023/04/26 03:15:02;;;;;;;7.35;3.28;;;3.10;99.90;;;;;;5057636;28;20096;-32
2023/04/26 03:17:28;;;;;;;7.45;3.17;;;3.10;99.90;;;;;;5093680;28;20040;-31
2023/04/26 03:19:54;;;;;;;5.70;2.97;;;3.00;99.90;;;;;;5092712;28;20040;-31
2023/04/26 03:22:20;;;;;;;5.30;2.90;;;3.00;99.90;;;;;;5093211;28;20047;-31
2023/04/26 03:24:46;;;;;;;7.38;2.95;;;2.90;99.90;;;;;;5093444;28;20042;-31
2023/04/26 03:27:12;;;;;;;6.85;3.13;;;2.90;99.90;;;;;;5086599;28;20033;-32
2023/04/26 03:29:38;;;;;;;7.50;2.90;;;2.80;99.90;;;;;;5090098;28;20068;-32
2023/04/26 03:32:05;;;;;;;5.95;2.97;;;2.80;99.90;;;;;;5087164;28;20541;-32
2023/04/26 03:34:30;;;;;;;4.93;3.30;;;2.70;99.90;;;;;;5092930;28;20036;-32
2023/04/26 03:36:56;;;;;;;5.47;3.42;;;2.60;99.90;;;;;;5093024;28;20043;-31
2023/04/26 03:39:22;;;;;;;5.18;3.15;;;2.60;99.90;;;;;;5093877;28;20071;-32
2023/04/26 03:41:48;;;;;;;4.38;2.60;;;2.60;99.90;;;;;;5094369;28;20039;-32
2023/04/26 03:44:14;;;;;;;5.63;3.40;;;2.50;99.90;;;;;;5093079;28;20032;-31
2023/04/26 03:46:40;;;;;;;7.07;2.90;;;2.40;99.90;;;;;;5090975;28;20032;-31
2023/04/26 03:49:06;;;;;;;4.05;2.83;;;2.40;99.90;;;;;;5088274;28;20497;-32
2023/04/26 03:51:31;;;;;;;7.38;3.05;;;2.40;99.90;;;;;;5092622;28;20040;-30
2023/04/26 03:53:58;;;;;;;6.20;3.72;;;2.30;99.90;;;;;;5092931;28;20043;-32
2023/04/26 03:56:23;;;;;;;5.28;3.20;;;2.30;99.90;;;;;;5085022;28;20048;-31
2023/04/26 03:58:49;;;;;;;7.28;3.00;;;2.20;99.90;;;;;;5090334;28;20029;-31
2023/04/26 04:01:15;;;;;;;7.25;3.15;;;2.20;99.90;;;;;;5093080;28;20160;-32
2023/04/26 04:03:41;;;;;;;9.68;3.63;;;2.20;99.90;;;;;;5092215;28;20421;-32
2023/04/26 04:06:07;;;;;;;6.97;3.70;;;2.20;99.90;;;;;;5089945;28;20043;-32
2023/04/26 04:08:33;;;;;;;7.63;3.10;;;2.20;99.90;;;;;;5109618;28;20522;-32
2023/04/26 04:11:00;;;;;;;8.45;3.22;;;2.20;99.90;;;;;;5092519;28;20122;-32
2023/04/26 04:13:26;;;;;;;7.13;3.60;;;2.20;99.90;;;;;;5092090;28;20050;-31
2023/04/26 04:15:51;;;;;;;9.13;4.07;;;2.10;99.90;;;;;;5091967;28;20032;-32
2023/04/26 04:18:17;;;;;;;7.70;3.08;;;2.10;99.90;;;;;;5092279;28;20036;-31
2023/04/26 04:20:43;;;;;;;11.25;4.22;;;2.10;99.90;;;;;;5091445;28;20044;-32
2023/04/26 04:23:09;;;;;;;7.63;3.88;;;2.10;99.90;;;;;;5082165;28;20033;-33
2023/04/26 04:25:35;;;;;;;6.57;3.70;;;2.10;99.90;;;;;;5089623;28;20051;-32
2023/04/26 04:28:04;;;;;;;6.28;3.33;;;2.10;99.90;;;;;;5089313;28;20515;-32
2023/04/26 04:30:30;;;;;;;6.38;3.67;;;2.10;99.90;;;;;;5090845;28;20058;-32
2023/04/26 04:32:58;;;;;;;7.72;3.50;;;2.10;99.90;;;;;;5068632;28;20130;-32
2023/04/26 04:35:29;;;;;;;11.18;4.38;;;2.10;99.90;;;;;;5089162;28;20044;-32
2023/04/26 04:37:58;;;;;;;6.05;3.70;;;2.10;99.90;;;;;;5088340;28;20545;-32
2023/04/26 04:40:25;;;;;;;6.45;3.55;;;2.10;99.90;;;;;;5091072;28;20040;-32
2023/04/26 04:42:52;;;;;;;7.32;3.80;;;2.00;99.90;;;;;;5091472;28;20040;-32
2023/04/26 04:45:19;;;;;;;5.85;3.38;;;2.10;99.90;;;;;;5091263;28;20412;-31
2023/04/26 04:47:45;;;;;;;7.50;4.18;;;2.10;99.90;;;;;;5073365;28;20663;-31
2023/04/26 04:50:10;;;;;;;9.20;3.45;;;2.10;99.90;;;;;;5090343;28;20044;-32
2023/04/26 04:52:36;;;;;;;11.23;4.20;;;2.10;99.90;;;;;;5088946;28;20082;-32
2023/04/26 04:55:03;;;;;;;6.07;3.60;;;2.10;99.90;;;;;;5070928;28;20475;-32
2023/04/26 04:57:33;;;;;;;6.60;3.63;;;2.20;99.90;;;;;;5091006;28;20509;-31
2023/04/26 05:00:05;;;;;;;5.57;3.63;;;2.10;99.90;;;;;;5086482;28;20051;-31
2023/04/26 05:02:31;;;;;;;9.80;4.03;;;2.20;99.90;;;;;;5085935;28;20045;-32
2023/04/26 05:04:57;;;;;;;10.13;4.03;;;2.20;99.90;;;;;;5089322;28;20039;-31
2023/04/26 05:07:22;;;;;;;9.23;4.07;;;2.20;99.90;;;;;;5089711;28;20028;-31
2023/04/26 05:09:48;;;;;;;8.65;3.70;;;2.20;99.90;;;;;;5090632;28;20128;-31
2023/04/26 05:12:13;;;;;;;10.00;4.32;;;2.20;99.90;;;;;;5089954;28;20032;-31
2023/04/26 05:14:39;;;;;;;6.85;3.88;;;2.30;99.90;;;;;;5063685;28;20062;-32
2023/04/26 05:17:05;;;;;;;6.53;3.72;;;2.30;99.90;;;;;;5073459;28;20044;-31
2023/04/26 05:19:31;;;;;;;7.50;4.47;;;2.30;99.90;;;;;;5090092;28;20036;-31
2023/04/26 05:21:57;;;;;;;5.75;3.42;;;2.30;99.90;;;;;;5089751;28;20523;-32
2023/04/26 05:24:23;;;;;;;7.03;3.80;;;2.40;99.90;;;;;;5073483;28;20040;-31
2023/04/26 05:26:48;;;;;;;9.32;3.60;;;2.50;99.90;;;;;;5087529;28;20093;-32
2023/04/26 05:29:15;;;;;;;9.85;3.78;;;2.50;99.90;;;;;;5087399;28;20390;-31
2023/04/26 05:31:41;;;;;;;7.18;3.50;;;2.50;99.90;;;;;;5083456;28;20083;-31
2023/04/26 05:34:07;;;;;;;7.78;3.35;;;2.60;99.90;;;;;;5084528;28;20063;-31
2023/04/26 05:36:32;;;;;;;6.63;3.78;;;2.70;99.90;;;;;;5085151;28;20040;-32
2023/04/26 05:38:58;;;;;;;10.55;4.15;;;2.80;99.90;;;;;;5067680;28;20131;-31
2023/04/26 05:41:24;;;;;;;8.02;4.10;;;2.90;99.90;;;;;;5075545;28;20124;-32
2023/04/26 05:43:49;;;;;;;8.13;4.22;;;3.00;99.90;;;;;;5072826;28;20115;-32
2023/04/26 05:46:15;;;;;;;7.72;4.13;;;3.10;99.90;;;;;;5075761;28;20481;-31
2023/04/26 05:48:41;;;;;;;9.55;3.83;;;3.30;99.90;;;;;;5080353;28;20029;-32
2023/04/26 05:51:06;;;;;;;9.75;3.88;;;3.50;99.90;;;;;;5085855;28;20036;-32
2023/04/26 05:53:32;;;;;;;9.27;4.20;;;3.80;99.90;;;;;;5089513;28;20451;-32
2023/04/26 05:55:58;;;;;;;6.93;3.92;;;4.00;99.90;;;;;;5090617;28;20028;-32
2023/04/26 05:58:24;;;;;;;6.57;3.72;;;4.20;99.90;;;;;;5086084;28;20398;-32
2023/04/26 06:00:49;;;;;;;6.43;4.15;;;4.40;99.90;;;;;;5090028;28;20043;-32
2023/04/26 06:03:15;;;;;;;6.20;3.63;;;4.50;99.90;;;;;;5090061;28;20079;-32
2023/04/26 06:05:41;;;;;;;6.57;3.50;;;4.60;99.90;;;;;;5086500;28;20036;-32
2023/04/26 06:08:06;;;;;;;6.40;4.00;;;4.70;99.90;;;;;;5090681;28;20042;-32
2023/04/26 06:10:34;;;;;;;6.35;4.10;;;4.80;99.90;;;;;;5072769;28;20409;-32
2023/04/26 06:12:59;;;;;;;7.70;3.97;;;5.00;99.90;;;;;;5090141;28;20072;-32
2023/04/26 06:15:26;;;;;;;8.82;3.90;;;5.10;99.90;;;;;;5089490;28;20129;-32
2023/04/26 06:17:52;;;;;;;4.57;3.47;;;5.20;99.90;;;;;;5090096;28;20032;-32
2023/04/26 06:20:18;;;;;;;9.65;3.75;;;5.40;99.90;;;;;;5089224;28;20063;-32
2023/04/26 06:22:43;;;;;;;5.00;3.47;;;5.50;99.90;;;;;;5090214;28;20031;-32
2023/04/26 06:25:09;;;;;;;8.55;3.95;;;5.60;99.90;;;;;;5090246;28;20111;-32
2023/04/26 06:27:35;;;;;;;6.75;3.53;;;5.70;99.90;;;;;;5085988;28;20243;-33
2023/04/26 06:30:01;;;;;;;7.43;3.60;;;5.80;99.90;;;;;;5090068;28;20058;-32
2023/04/26 06:32:26;;;;;;;7.72;3.85;;;5.80;99.90;;;;;;5089303;28;20035;-32
2023/04/26 06:34:52;;;;;;;7.53;3.70;;;5.90;99.90;;;;;;5089002;28;20040;-32
2023/04/26 06:37:18;;;;;;;7.05;3.70;;;5.90;99.90;;;;;;5087846;28;20086;-32
2023/04/26 06:39:43;;;;;;;5.55;3.38;;;5.90;99.90;;;;;;5085289;28;20113;-32
2023/04/26 06:42:10;;;;;;;5.95;3.30;;;5.80;99.90;;;;;;5088066;28;20040;-32
2023/04/26 06:44:36;;;;;;;9.02;3.38;;;5.90;99.90;;;;;;5090134;28;20031;-33
2023/04/26 06:47:01;;;;;;;8.38;3.67;;;5.90;99.90;;;;;;5092484;28;20118;-32
2023/04/26 06:49:27;;;;;;;9.55;4.00;;;5.90;99.90;;;;;;5092497;28;20044;-31
2023/04/26 06:51:53;;;;;;;6.40;3.45;;;6.00;99.90;;;;;;5094321;28;20431;-32
2023/04/26 06:54:18;;;;;;;6.25;3.40;;;6.00;99.90;;;;;;5093731;28;20097;-32
2023/04/26 06:56:44;;;;;;;5.82;3.10;;;6.00;99.90;;;;;;5092984;28;20043;-32
2023/04/26 06:59:10;;;;;;;3.92;3.00;;;6.00;99.90;;;;;;5088127;28;20124;-33
2023/04/26 07:01:36;;;;;;;7.20;3.47;;;6.00;99.90;;;;;;5090614;28;20047;-32
2023/04/26 07:04:03;;;;;;;4.43;3.35;;;6.10;99.90;;;;;;5093162;28;20474;-32
2023/04/26 07:06:32;;;;;;;5.00;2.72;;;6.20;99.90;;;;;;5094016;28;20434;-32
2023/04/26 07:08:59;;;;;;;5.50;3.03;;;6.30;99.90;;;;;;5093753;28;20032;-32
2023/04/26 07:11:25;;;;;;;10.73;3.25;;;6.40;99.90;;;;;;5094032;28;20040;-32
2023/04/26 07:13:51;;;;;;;6.43;2.92;;;6.50;99.90;;;;;;5092933;28;20054;-32
2023/04/26 07:16:16;;;;;;;6.95;2.75;;;6.60;99.90;;;;;;5091083;28;20036;-32
2023/04/26 07:18:42;;;;;;;4.90;2.70;;;6.80;99.90;;;;;;5093368;28;20090;-33
2023/04/26 07:21:08;;;;;;;3.75;2.60;;;6.90;99.90;;;;;;5091481;28;20036;-32
2023/04/26 07:23:34;;;;;;;4.53;2.00;;;7.10;99.90;;;;;;5093387;28;20378;-32
2023/04/26 07:26:02;;;;;;;5.53;2.78;;;7.30;99.90;;;;;;5092821;28;20055;-32
2023/04/26 07:28:31;;;;;;;4.07;2.67;;;7.50;99.90;;;;;;5093449;28;20553;-32
2023/04/26 07:31:00;;;;;;;6.18;2.22;;;7.70;99.90;;;;;;5092871;28;20035;-32
2023/04/26 07:33:26;;;;;;;5.28;2.92;;;7.80;99.90;;;;;;5093052;28;20119;-32
2023/04/26 07:36:00;;;;;;;6.07;2.95;;;7.80;99.90;;;;;;5090849;28;20120;-32
2023/04/26 07:38:26;;;;;;;5.30;2.40;;;7.90;99.90;;;;;;5093227;28;20054;-32
2023/04/26 07:40:52;;;;;;;4.88;2.20;;;8.00;99.90;;;;;;5089020;28;20036;-32
2023/04/26 07:43:20;;;;;;;4.10;2.33;;;8.20;99.90;;;;;;5075829;28;20032;-32
2023/04/26 07:45:46;;;;;;;5.05;2.78;;;8.40;99.90;;;;;;5092159;28;20072;-32
2023/04/26 07:48:12;;;;;;;7.03;2.65;;;8.50;99.90;;;;;;5075986;28;20087;-32
2023/04/26 07:50:37;;;;;;;5.50;2.05;;;8.70;99.90;;;;;;5089458;28;20046;-32
2023/04/26 07:53:03;;;;;;;5.00;2.05;;;9.00;99.90;;;;;;5092874;28;20040;-32
2023/04/26 07:55:29;;;;;;;5.03;2.28;;;9.20;99.90;;;;;;5092392;28;20051;-32
2023/04/26 07:57:55;;;;;;;4.50;2.33;;;9.30;99.90;;;;;;5092447;28;20448;-32
2023/04/26 08:00:23;;;;;;;5.90;2.10;;;9.50;99.90;;;;;;5092489;28;20046;-32
2023/04/26 08:02:49;;;;;;;3.55;2.40;;;9.70;99.90;;;;;;5092704;28;20093;-33
2023/04/26 08:05:15;;;;;;;3.75;1.90;;;9.90;99.90;;;;;;5092804;28;20036;-32
2023/04/26 08:07:42;;;;;;;3.88;2.20;;;10.10;99.90;;;;;;5092715;28;20490;-33
2023/04/26 08:10:08;;;;;;;6.78;2.10;;;10.40;99.90;;;;;;5092125;28;20044;-32
2023/04/26 08:12:35;;;;;;;7.32;2.95;;;10.50;99.90;;;;;;5093396;28;20321;-32
2023/04/26 08:15:03;;;;;;;3.65;2.17;;;10.60;99.90;;;;;;5087251;28;20394;-32
2023/04/26 08:17:30;;;;;;;4.22;1.95;;;10.70;99.90;;;;;;5086449;28;20033;-32
2023/04/26 08:19:55;;;;;;;7.75;2.20;;;10.50;99.90;;;;;;5092647;28;20032;-32
2023/04/26 08:22:21;;;;;;;3.85;2.00;;;10.30;99.90;;;;;;5085186;28;20043;-32
2023/04/26 08:24:49;;;;;;;4.85;1.98;;;10.30;99.90;;;;;;5087510;28;20603;-32
2023/04/26 08:27:15;;;;;;;4.97;1.90;;;10.10;99.90;;;;;;5092139;28;20036;-32
2023/04/26 08:29:41;;;;;;;3.13;1.55;;;10.00;99.90;;;;;;5091013;28;20459;-33
2023/04/26 08:32:07;;;;;;;5.60;1.95;;;10.00;99.90;;;;;;5091799;28;20044;-32
2023/04/26 08:34:33;;;;;;;6.68;2.17;;;10.20;99.90;;;;;;5093219;28;20028;-33
2023/04/26 08:36:59;;;;;;;5.43;2.13;;;10.00;99.90;;;;;;5092269;28;20032;-32
2023/04/26 08:39:25;;;;;;;4.25;1.98;;;10.00;99.90;;;;;;5091608;28;20099;-32
2023/04/26 08:41:56;;;;;;;2.72;1.80;;;10.00;99.90;;;;;;5083739;28;20133;-33
2023/04/26 08:44:23;;;;;;;6.93;2.67;;;10.00;99.90;;;;;;5091771;28;20040;-33
2023/04/26 08:47:16;;;;;;;3.80;1.90;;;10.10;99.90;;;;;;5091752;28;20079;-32
2023/04/26 08:49:47;;;;;;;3.47;1.83;;;10.20;99.90;;;;;;5091674;28;20503;-33
2023/04/26 08:52:15;;;;;;;4.13;2.00;;;10.30;99.90;;;;;;5091599;28;20043;-32
2023/04/26 08:54:41;;;;;;;6.65;1.88;;;10.00;99.90;;;;;;5091769;28;20055;-33
2023/04/26 08:57:08;;;;;;;3.50;2.20;;;9.80;99.90;;;;;;5091484;28;20050;-32
2023/04/26 08:59:37;;;;;;;5.65;2.17;;;9.60;99.90;;;;;;5083493;28;20063;-33
2023/04/26 09:02:08;;;;;;;7.22;2.38;;;9.50;99.90;;;;;;5087179;28;20078;-32
2023/04/26 09:04:34;;;;;;;6.72;2.58;;;9.20;99.90;;;;;;5090765;28;20123;-32
2023/04/26 09:07:03;;;;;;;6.25;2.47;;;9.10;99.90;;;;;;5084422;28;20028;-32
2023/04/26 09:09:40;;;;;;;4.05;2.20;;;9.00;99.90;;;;;;5082336;28;20045;-32
2023/04/26 09:12:07;;;;;;;5.35;2.30;;;8.90;99.90;;;;;;5091074;28;20051;-33
2023/04/26 09:14:33;;;;;;;4.78;2.40;;;8.80;99.90;;;;;;5091109;28;20089;-32
2023/04/26 09:16:59;;;;;;;6.80;2.75;;;8.70;99.90;;;;;;5091064;28;20051;-32
2023/04/26 09:19:39;;;;;;;6.63;2.00;;;8.60;99.90;;;;;;5090681;28;20503;-33
2023/04/26 09:22:05;;;;;;;3.67;2.15;;;8.50;99.90;;;;;;5086642;28;20078;-32
2023/04/26 09:24:53;;;;;;;5.90;2.50;;;8.50;99.90;;;;;;5082799;28;20080;-33
2023/04/26 09:27:19;;;;;;;6.80;2.75;;;8.60;99.90;;;;;;5090736;28;20039;-32
2023/04/26 09:29:57;;;;;;;5.43;2.33;;;8.80;99.90;;;;;;5090753;28;20036;-32
2023/04/26 09:32:23;;;;;;;3.50;2.47;;;8.80;99.90;;;;;;5089821;28;20489;-32
2023/04/26 09:34:49;;;;;;;7.55;3.15;;;8.90;99.90;;;;;;5086924;28;20036;-32
2023/04/26 09:37:15;;;;;;;3.17;2.58;;;9.00;99.90;;;;;;5090678;28;20516;-32
2023/04/26 09:39:41;;;;;;;3.65;2.55;;;9.00;99.90;;;;;;5087700;28;20497;-33
2023/04/26 09:42:10;;;;;;;5.78;2.75;;;9.10;99.90;;;;;;5090780;28;20489;-32
2023/04/26 09:44:37;;;;;;;4.35;2.55;;;9.20;99.90;;;;;;5090302;28;20046;-33
2023/04/26 09:47:11;;;;;;;6.20;3.00;;;9.10;99.90;;;;;;5090743;28;20050;-32
2023/04/26 09:49:50;;;;;;;7.47;3.28;;;9.10;99.90;;;;;;5090344;28;20068;-32
2023/04/26 09:52:19;;;;;;;8.68;2.80;;;9.20;99.90;;;;;;5081061;28;20465;-33
2023/04/26 09:54:53;;;;;;;6.78;3.22;;;9.20;99.90;;;;;;5087078;28;20043;-32
2023/04/26 09:57:21;;;;;;;4.43;2.35;;;9.50;99.90;;;;;;5091002;28;20028;-33
2023/04/26 09:59:50;;;;;;;6.72;3.25;;;9.80;99.90;;;;;;5090324;28;20089;-32
2023/04/26 10:02:25;;;;;;;6.80;2.60;;;10.40;99.90;;;;;;5090075;28;20062;-33
2023/04/26 10:04:55;;;;;;;9.05;2.47;;;11.10;99.90;;;;;;5083593;28;20032;-33
2023/04/26 10:07:23;;;;;;;4.03;2.33;;;11.60;99.90;;;;;;5090207;28;20075;-33
2023/04/26 10:09:49;;;;;;;9.15;2.50;;;11.50;99.90;;;;;;5087552;28;20093;-33
2023/04/26 10:12:17;;;;;;;4.85;2.60;;;11.50;99.90;;;;;;5088854;28;20547;-33
2023/04/26 10:14:45;;;;;;;6.10;2.17;;;11.30;99.90;;;;;;5090362;28;20031;-32
2023/04/26 10:17:12;;;;;;;5.10;2.17;;;11.30;99.90;;;;;;5089884;28;20046;-33
2023/04/26 10:19:39;;;;;;;2.95;2.00;;;11.10;99.90;;;;;;5089729;28;20079;-33
2023/04/26 10:22:16;;;;;;;4.00;2.20;;;11.50;99.90;;;;;;5089767;28;20160;-32
2023/04/26 10:24:43;;;;;;;3.00;1.90;;;11.90;99.90;;;;;;5090570;28;20036;-33
2023/04/26 10:27:09;;;;;;;2.97;1.83;;;12.60;99.90;;;;;;5085573;28;20089;-33
2023/04/26 10:29:53;;;;;;;3.50;1.75;;;12.90;99.90;;;;;;5090177;28;20546;-33
2023/04/26 10:32:22;;;;;;;4.30;2.00;;;13.40;95.50;;;;;;5081319;28;20040;-33
2023/04/26 10:35:09;;;;;;;3.38;1.60;;;13.70;99.90;;;;;;5084582;28;20036;-33
2023/04/26 10:37:36;;;;;;;4.10;1.70;;;13.60;69.60;;;;;;5087935;28;20397;-33
2023/04/26 10:40:30;;;;;;;5.68;2.30;;;13.30;99.90;;;;;;5084671;28;20443;-33
2023/04/26 10:43:10;;;;;;;3.65;2.20;;;13.10;63.70;;;;;;5087181;28;20032;-32
2023/04/26 10:45:38;;;;;;;3.97;1.92;;;12.90;70.00;;;;;;5088439;28;20044;-34
2023/04/26 10:48:27;;;;;;;4.57;1.67;;;12.90;99.90;;;;;;5087698;28;20101;-32
2023/04/26 10:51:00;;;;;;;4.40;2.20;;;12.70;90.70;;;;;;5066327;28;20067;-34
2023/04/26 10:53:46;;;;;;;3.35;2.28;;;12.10;85.30;;;;;;5089862;28;20048;-33
2023/04/26 10:56:24;;;;;;;5.68;2.60;;;11.50;97.70;;;;;;5083929;28;20044;-32
2023/04/26 10:59:10;;;;;;;5.32;2.28;;;11.10;99.90;;;;;;5089889;28;20040;-32
2023/04/26 11:01:36;;;;;;;5.72;2.58;;;10.70;99.90;;;;;;5089802;28;20044;-33
2023/04/26 11:04:20;;;;;;;4.93;2.50;;;10.40;99.90;;;;;;5089451;28;20050;-33
2023/04/26 11:06:52;;;;;;;6.10;2.55;;;10.10;99.90;;;;;;5089855;28;20062;-32
2023/04/26 11:09:40;;;;;;;6.25;2.80;;;9.90;99.90;;;;;;5088708;28;20047;-33
2023/04/26 11:12:14;;;;;;;4.85;2.78;;;9.70;99.90;;;;;;5087139;28;20051;-32
2023/04/26 11:14:45;;;;;;;4.25;2.72;;;9.50;99.90;;;;;;5086421;28;20511;-32
2023/04/26 11:17:11;;;;;;;3.33;2.20;;;9.40;99.90;;;;;;5100310;28;20036;-32
2023/04/26 11:19:37;;;;;;;6.13;2.72;;;9.30;99.90;;;;;;5080666;28;20050;-32
2023/04/26 11:22:06;;;;;;;4.47;2.50;;;9.20;99.90;;;;;;5086039;28;20028;-32
2023/04/26 11:24:37;;;;;;;4.47;2.90;;;9.20;99.90;;;;;;5078680;28;20041;-33
2023/04/26 11:27:10;;;;;;;6.65;2.60;;;9.30;99.90;;;;;;5087954;28;20035;-32
2023/04/26 11:29:37;;;;;;;5.90;2.67;;;9.40;99.90;;;;;;5087701;28;20509;-32
2023/04/26 11:32:03;;;;;;;4.50;2.38;;;9.50;99.90;;;;;;5090634;28;20465;-32
2023/04/26 11:34:34;;;;;;;4.78;2.65;;;9.60;99.90;;;;;;5092973;28;20040;-33
2023/04/26 11:37:04;;;;;;;4.97;2.25;;;9.80;99.90;;;;;;5093351;28;20028;-32
2023/04/26 11:39:33;;;;;;;6.13;2.40;;;9.90;99.90;;;;;;5089907;28;20036;-32
2023/04/26 11:42:06;;;;;;;5.40;2.63;;;9.90;99.90;;;;;;5093525;28;20028;-32
2023/04/26 11:44:32;;;;;;;4.93;2.33;;;10.00;99.90;;;;;;5092749;28;20028;-33
2023/04/26 11:47:00;;;;;;;5.90;2.78;;;10.00;99.90;;;;;;5093127;28;20119;-33
2023/04/26 11:49:26;;;;;;;5.03;2.28;;;10.20;99.90;;;;;;5092833;28;20044;-33
2023/04/26 11:51:53;;;;;;;3.78;1.80;;;10.40;99.90;;;;;;5093078;28;20048;-32
2023/04/26 11:54:36;;;;;;;4.60;2.08;;;10.40;99.90;;;;;;5094194;28;20118;-33
2023/04/26 11:57:16;;;;;;;4.43;2.30;;;10.70;99.90;;;;;;5090303;28;20071;-33
2023/04/26 11:59:42;;;;;;;5.38;2.42;;;10.80;99.90;;;;;;5093161;28;20040;-32
2023/04/26 12:02:09;;;;;;;5.32;2.40;;;11.80;99.90;;;;;;5092837;28;20032;-33
2023/04/26 12:04:36;;;;;;;3.50;2.28;;;12.50;99.90;;;;;;5084575;28;20037;-33
2023/04/26 12:07:05;;;;;;;4.43;2.15;;;13.50;99.90;;;;;;5090088;28;20038;-33
2023/04/26 12:09:31;;;;;;;3.22;2.00;;;14.70;99.90;;;;;;5093017;28;20524;-34
2023/04/26 12:12:03;;;;;;;3.63;1.90;;;15.20;99.90;;;;;;5084348;28;20043;-34
2023/04/26 12:14:33;;;;;;;3.55;2.10;;;15.20;95.10;;;;;;5091636;28;20330;-34
2023/04/26 12:17:01;;;;;;;2.72;1.77;;;15.70;90.10;;;;;;5092843;28;20055;-33
2023/04/26 12:19:31;;;;;;;4.55;2.10;;;15.60;70.40;;;;;;5085670;28;20097;-33
2023/04/26 12:21:57;;;;;;;4.38;2.00;;;15.00;63.30;;;;;;5085649;28;20425;-33
2023/04/26 12:24:33;;;;;;;3.35;2.08;;;14.40;64.20;;;;;;5083873;28;20036;-32
2023/04/26 12:27:03;;;;;;;4.05;2.35;;;13.70;62.30;;;;;;5092111;28;20036;-33
2023/04/26 12:29:30;;;;;;;3.38;2.45;;;13.20;69.90;;;;;;5089359;28;20033;-32
2023/04/26 12:31:57;;;;;;;4.80;2.75;;;12.90;80.90;;;;;;5092132;28;20078;-33
2023/04/26 12:34:23;;;;;;;3.13;2.30;;;12.50;90.10;;;;;;5091989;28;20497;-33
2023/04/26 12:36:49;;;;;;;3.83;2.40;;;12.30;94.40;;;;;;5090610;28;20437;-33
2023/04/26 12:39:15;;;;;;;3.70;2.22;;;12.10;99.60;;;;;;5090847;28;20109;-33
2023/04/26 12:41:41;;;;;;;3.17;2.42;;;11.80;99.90;;;;;;5090244;28;20379;-33
2023/04/26 12:44:08;;;;;;;4.95;2.17;;;11.60;99.90;;;;;;5091682;28;20113;-33
2023/04/26 12:46:35;;;;;;;4.93;2.15;;;11.50;99.90;;;;;;5091640;28;20089;-32
2023/04/26 12:49:01;;;;;;;5.57;2.55;;;11.20;99.90;;;;;;5091949;28;20032;-32
2023/04/26 12:51:27;;;;;;;10.30;2.70;;;11.10;99.90;;;;;;5093084;28;20578;-33
2023/04/26 12:53:52;;;;;;;5.30;2.50;;;10.80;99.90;;;;;;5091176;28;20401;-32
2023/04/26 12:56:18;;;;;;;2.72;2.38;;;10.60;99.90;;;;;;5085346;28;20039;-33
2023/04/26 12:58:44;;;;;;;3.53;2.45;;;10.60;99.90;;;;;;5091324;28;20523;-32